sensor_id;sensor_type;location;lat;lon;timestamp;P1;durP1;ratioP1;P2;durP2;ratioP2
20824;SDS011;10573;50.936;6.978;2023-03-05T00:00:36;9.20;;;2.77;;
20824;SDS011;10573;50.936;6.978;2023-03-05T00:03:01;8.00;;;2.23;;
20824;SDS011;10573;50.936;6.978;2023-03-05T00:05:27;10.98;;;2.40;;
20824;SDS011;10573;50.936;6.978;2023-03-05T00:07:52;10.67;;;2.50;;
20824;SDS011;10573;50.936;6.978;2023-03-05T00:10:17;10.13;;;2.20;;
20824;SDS011;10573;50.936;6.978;2023-03-05T00:12:43;8.73;;;2.60;;
20824;SDS011;10573;50.936;6.978;2023-03-05T00:15:08;14.90;;;2.83;;
20824;SDS011;10573;50.936;6.978;2023-03-05T00:17:34;10.07;;;2.63;;
20824;SDS011;10573;50.936;6.978;2023-03-05T00:19:59;8.50;;;2.40;;
20824;SDS011;10573;50.936;6.978;2023-03-05T00:22:25;9.70;;;2.10;;
20824;SDS011;10573;50.936;6.978;2023-03-05T00:24:50;11.83;;;2.20;;
20824;SDS011;10573;50.936;6.978;2023-03-05T00:27:16;10.23;;;2.60;;
20824;SDS011;10573;50.936;6.978;2023-03-05T00:29:41;13.87;;;2.77;;
20824;SDS011;10573;50.936;6.978;2023-03-05T00:32:06;13.73;;;2.38;;
20824;SDS011;10573;50.936;6.978;2023-03-05T00:34:32;10.60;;;2.73;;
20824;SDS011;10573;50.936;6.978;2023-03-05T00:36:57;7.93;;;2.27;;
20824;SDS011;10573;50.936;6.978;2023-03-05T00:39:23;8.27;;;2.17;;
20824;SDS011;10573;50.936;6.978;2023-03-05T00:41:48;10.00;;;2.60;;
20824;SDS011;10573;50.936;6.978;2023-03-05T00:44:14;8.88;;;2.10;;
20824;SDS011;10573;50.936;6.978;2023-03-05T00:46:40;10.07;;;2.00;;
20824;SDS011;10573;50.936;6.978;2023-03-05T00:49:05;10.03;;;2.17;;
20824;SDS011;10573;50.936;6.978;2023-03-05T00:51:31;8.77;;;2.30;;
20824;SDS011;10573;50.936;6.978;2023-03-05T00:53:57;8.68;;;2.55;;
20824;SDS011;10573;50.936;6.978;2023-03-05T00:56:22;8.70;;;2.13;;
20824;SDS011;10573;50.936;6.978;2023-03-05T00:58:48;12.30;;;2.70;;
20824;SDS011;10573;50.936;6.978;2023-03-05T01:01:14;10.87;;;2.70;;
20824;SDS011;10573;50.936;6.978;2023-03-05T01:03:40;14.68;;;2.72;;
20824;SDS011;10573;50.936;6.978;2023-03-05T01:06:06;10.95;;;2.63;;
20824;SDS011;10573;50.936;6.978;2023-03-05T01:08:34;10.03;;;2.50;;
20824;SDS011;10573;50.936;6.978;2023-03-05T01:11:01;11.63;;;2.45;;
20824;SDS011;10573;50.936;6.978;2023-03-05T01:13:27;10.55;;;2.08;;
20824;SDS011;10573;50.936;6.978;2023-03-05T01:15:52;9.07;;;2.20;;
20824;SDS011;10573;50.936;6.978;2023-03-05T01:18:18;7.30;;;2.13;;
20824;SDS011;10573;50.936;6.978;2023-03-05T01:20:44;11.45;;;2.40;;
20824;SDS011;10573;50.936;6.978;2023-03-05T01:23:09;7.55;;;2.08;;
20824;SDS011;10573;50.936;6.978;2023-03-05T01:25:35;13.27;;;2.20;;
20824;SDS011;10573;50.936;6.978;2023-03-05T01:28:01;10.70;;;2.50;;
20824;SDS011;10573;50.936;6.978;2023-03-05T01:30:26;10.27;;;2.37;;
20824;SDS011;10573;50.936;6.978;2023-03-05T01:32:52;8.87;;;2.03;;
20824;SDS011;10573;50.936;6.978;2023-03-05T01:35:19;9.00;;;1.88;;
20824;SDS011;10573;50.936;6.978;2023-03-05T01:37:46;8.80;;;2.08;;
20824;SDS011;10573;50.936;6.978;2023-03-05T01:40:13;7.13;;;1.60;;
20824;SDS011;10573;50.936;6.978;2023-03-05T01:42:48;12.18;;;2.78;;
20824;SDS011;10573;50.936;6.978;2023-03-05T01:45:20;7.23;;;1.50;;
20824;SDS011;10573;50.936;6.978;2023-03-05T01:47:45;10.30;;;1.90;;
20824;SDS011;10573;50.936;6.978;2023-03-05T01:50:12;11.13;;;1.90;;
20824;SDS011;10573;50.936;6.978;2023-03-05T01:52:43;9.85;;;2.10;;
20824;SDS011;10573;50.936;6.978;2023-03-05T01:55:33;12.05;;;3.05;;
20824;SDS011;10573;50.936;6.978;2023-03-05T01:57:59;8.23;;;1.80;;
20824;SDS011;10573;50.936;6.978;2023-03-05T02:00:30;8.93;;;1.80;;
20824;SDS011;10573;50.936;6.978;2023-03-05T02:03:00;5.82;;;1.70;;
20824;SDS011;10573;50.936;6.978;2023-03-05T02:05:31;5.72;;;1.50;;
20824;SDS011;10573;50.936;6.978;2023-03-05T02:07:58;10.85;;;2.03;;
20824;SDS011;10573;50.936;6.978;2023-03-05T02:10:29;10.53;;;2.13;;
20824;SDS011;10573;50.936;6.978;2023-03-05T02:12:58;10.48;;;2.60;;
20824;SDS011;10573;50.936;6.978;2023-03-05T02:15:25;13.33;;;2.40;;
20824;SDS011;10573;50.936;6.978;2023-03-05T02:17:51;13.95;;;2.00;;
20824;SDS011;10573;50.936;6.978;2023-03-05T02:20:23;10.13;;;2.13;;
20824;SDS011;10573;50.936;6.978;2023-03-05T02:22:51;9.53;;;2.30;;
20824;SDS011;10573;50.936;6.978;2023-03-05T02:25:21;10.82;;;2.20;;
20824;SDS011;10573;50.936;6.978;2023-03-05T02:28:02;11.98;;;1.77;;
20824;SDS011;10573;50.936;6.978;2023-03-05T02:30:32;11.25;;;2.15;;
20824;SDS011;10573;50.936;6.978;2023-03-05T02:32:57;8.32;;;1.77;;
20824;SDS011;10573;50.936;6.978;2023-03-05T02:35:23;8.18;;;2.05;;
20824;SDS011;10573;50.936;6.978;2023-03-05T02:37:49;11.15;;;2.45;;
20824;SDS011;10573;50.936;6.978;2023-03-05T02:40:15;8.83;;;2.00;;
20824;SDS011;10573;50.936;6.978;2023-03-05T02:42:41;7.63;;;1.87;;
20824;SDS011;10573;50.936;6.978;2023-03-05T02:45:07;8.00;;;1.77;;
20824;SDS011;10573;50.936;6.978;2023-03-05T02:47:34;6.87;;;1.57;;
20824;SDS011;10573;50.936;6.978;2023-03-05T02:50:00;7.20;;;1.90;;
20824;SDS011;10573;50.936;6.978;2023-03-05T02:52:25;9.37;;;1.80;;
20824;SDS011;10573;50.936;6.978;2023-03-05T02:54:53;6.40;;;1.80;;
20824;SDS011;10573;50.936;6.978;2023-03-05T02:57:18;11.23;;;1.60;;
20824;SDS011;10573;50.936;6.978;2023-03-05T02:59:44;6.40;;;1.85;;
20824;SDS011;10573;50.936;6.978;2023-03-05T03:02:10;11.55;;;2.10;;
20824;SDS011;10573;50.936;6.978;2023-03-05T03:04:36;10.87;;;2.33;;
20824;SDS011;10573;50.936;6.978;2023-03-05T03:07:02;6.93;;;2.37;;
20824;SDS011;10573;50.936;6.978;2023-03-05T03:09:27;10.47;;;1.90;;
20824;SDS011;10573;50.936;6.978;2023-03-05T03:11:53;7.95;;;2.00;;
20824;SDS011;10573;50.936;6.978;2023-03-05T03:14:18;10.67;;;1.97;;
20824;SDS011;10573;50.936;6.978;2023-03-05T03:16:43;8.10;;;2.00;;
20824;SDS011;10573;50.936;6.978;2023-03-05T03:19:09;8.00;;;1.70;;
20824;SDS011;10573;50.936;6.978;2023-03-05T03:21:34;8.00;;;2.10;;
20824;SDS011;10573;50.936;6.978;2023-03-05T03:24:00;8.17;;;1.77;;
20824;SDS011;10573;50.936;6.978;2023-03-05T03:26:25;12.27;;;2.00;;
20824;SDS011;10573;50.936;6.978;2023-03-05T03:28:51;9.63;;;2.20;;
20824;SDS011;10573;50.936;6.978;2023-03-05T03:31:16;7.40;;;1.80;;
20824;SDS011;10573;50.936;6.978;2023-03-05T03:33:41;5.37;;;1.93;;
20824;SDS011;10573;50.936;6.978;2023-03-05T03:36:07;8.17;;;2.03;;
20824;SDS011;10573;50.936;6.978;2023-03-05T03:38:33;11.55;;;1.90;;
20824;SDS011;10573;50.936;6.978;2023-03-05T03:40:59;9.10;;;2.17;;
20824;SDS011;10573;50.936;6.978;2023-03-05T03:43:24;7.50;;;1.80;;
20824;SDS011;10573;50.936;6.978;2023-03-05T03:45:50;9.80;;;2.10;;
20824;SDS011;10573;50.936;6.978;2023-03-05T03:48:15;8.43;;;2.10;;
20824;SDS011;10573;50.936;6.978;2023-03-05T03:50:40;12.27;;;2.50;;
20824;SDS011;10573;50.936;6.978;2023-03-05T03:53:07;9.60;;;1.77;;
20824;SDS011;10573;50.936;6.978;2023-03-05T03:55:33;6.07;;;1.67;;
20824;SDS011;10573;50.936;6.978;2023-03-05T03:57:59;9.35;;;2.00;;
20824;SDS011;10573;50.936;6.978;2023-03-05T04:00:25;8.38;;;1.52;;
20824;SDS011;10573;50.936;6.978;2023-03-05T04:02:51;5.68;;;1.30;;
20824;SDS011;10573;50.936;6.978;2023-03-05T04:05:16;7.35;;;1.75;;
20824;SDS011;10573;50.936;6.978;2023-03-05T04:07:41;6.87;;;2.10;;
20824;SDS011;10573;50.936;6.978;2023-03-05T04:10:07;8.67;;;1.60;;
20824;SDS011;10573;50.936;6.978;2023-03-05T04:12:33;4.93;;;1.30;;
20824;SDS011;10573;50.936;6.978;2023-03-05T04:14:58;8.77;;;1.60;;
20824;SDS011;10573;50.936;6.978;2023-03-05T04:17:24;6.23;;;1.50;;
20824;SDS011;10573;50.936;6.978;2023-03-05T04:19:49;5.40;;;1.40;;
20824;SDS011;10573;50.936;6.978;2023-03-05T04:22:15;4.93;;;1.30;;
20824;SDS011;10573;50.936;6.978;2023-03-05T04:24:41;5.95;;;1.40;;
20824;SDS011;10573;50.936;6.978;2023-03-05T04:27:07;5.70;;;1.40;;
20824;SDS011;10573;50.936;6.978;2023-03-05T04:29:33;4.53;;;1.30;;
20824;SDS011;10573;50.936;6.978;2023-03-05T04:31:59;6.47;;;1.33;;
20824;SDS011;10573;50.936;6.978;2023-03-05T04:34:25;7.55;;;1.90;;
20824;SDS011;10573;50.936;6.978;2023-03-05T04:36:51;10.03;;;1.97;;
20824;SDS011;10573;50.936;6.978;2023-03-05T04:39:16;5.93;;;1.53;;
20824;SDS011;10573;50.936;6.978;2023-03-05T04:41:45;5.18;;;1.65;;
20824;SDS011;10573;50.936;6.978;2023-03-05T04:44:11;9.98;;;1.88;;
20824;SDS011;10573;50.936;6.978;2023-03-05T04:46:37;12.38;;;2.10;;
20824;SDS011;10573;50.936;6.978;2023-03-05T04:49:03;8.93;;;1.87;;
20824;SDS011;10573;50.936;6.978;2023-03-05T04:51:28;13.07;;;1.98;;
20824;SDS011;10573;50.936;6.978;2023-03-05T04:53:54;9.70;;;2.23;;
20824;SDS011;10573;50.936;6.978;2023-03-05T04:56:19;7.07;;;1.90;;
20824;SDS011;10573;50.936;6.978;2023-03-05T04:58:45;6.10;;;1.40;;
20824;SDS011;10573;50.936;6.978;2023-03-05T05:01:10;9.90;;;1.92;;
20824;SDS011;10573;50.936;6.978;2023-03-05T05:03:35;9.43;;;2.07;;
20824;SDS011;10573;50.936;6.978;2023-03-05T05:06:01;8.93;;;2.00;;
20824;SDS011;10573;50.936;6.978;2023-03-05T05:08:27;9.50;;;2.10;;
20824;SDS011;10573;50.936;6.978;2023-03-05T05:11:03;7.93;;;1.50;;
20824;SDS011;10573;50.936;6.978;2023-03-05T05:13:31;8.90;;;1.70;;
20824;SDS011;10573;50.936;6.978;2023-03-05T05:15:57;6.03;;;1.73;;
20824;SDS011;10573;50.936;6.978;2023-03-05T05:18:23;8.75;;;1.60;;
20824;SDS011;10573;50.936;6.978;2023-03-05T05:20:49;7.05;;;1.70;;
20824;SDS011;10573;50.936;6.978;2023-03-05T05:23:15;8.52;;;2.00;;
20824;SDS011;10573;50.936;6.978;2023-03-05T05:25:41;5.68;;;1.60;;
20824;SDS011;10573;50.936;6.978;2023-03-05T05:28:10;8.07;;;2.03;;
20824;SDS011;10573;50.936;6.978;2023-03-05T05:30:36;9.07;;;2.05;;
20824;SDS011;10573;50.936;6.978;2023-03-05T05:33:02;9.30;;;2.00;;
20824;SDS011;10573;50.936;6.978;2023-03-05T05:35:27;6.03;;;1.80;;
20824;SDS011;10573;50.936;6.978;2023-03-05T05:37:53;8.80;;;1.60;;
20824;SDS011;10573;50.936;6.978;2023-03-05T05:40:18;7.83;;;2.10;;
20824;SDS011;10573;50.936;6.978;2023-03-05T05:42:44;10.40;;;2.27;;
20824;SDS011;10573;50.936;6.978;2023-03-05T05:45:09;7.53;;;1.90;;
20824;SDS011;10573;50.936;6.978;2023-03-05T05:47:35;7.47;;;1.90;;
20824;SDS011;10573;50.936;6.978;2023-03-05T05:50:01;8.13;;;2.30;;
20824;SDS011;10573;50.936;6.978;2023-03-05T05:52:26;11.50;;;2.10;;
20824;SDS011;10573;50.936;6.978;2023-03-05T05:54:52;9.80;;;2.23;;
20824;SDS011;10573;50.936;6.978;2023-03-05T05:57:17;10.25;;;1.90;;
20824;SDS011;10573;50.936;6.978;2023-03-05T05:59:43;12.67;;;2.30;;
20824;SDS011;10573;50.936;6.978;2023-03-05T06:02:08;10.17;;;2.23;;
20824;SDS011;10573;50.936;6.978;2023-03-05T06:04:35;8.40;;;2.15;;
20824;SDS011;10573;50.936;6.978;2023-03-05T06:07:01;12.90;;;2.13;;
20824;SDS011;10573;50.936;6.978;2023-03-05T06:09:27;9.93;;;2.35;;
20824;SDS011;10573;50.936;6.978;2023-03-05T06:11:52;9.93;;;2.20;;
20824;SDS011;10573;50.936;6.978;2023-03-05T06:14:18;9.03;;;2.70;;
20824;SDS011;10573;50.936;6.978;2023-03-05T06:16:43;12.13;;;2.70;;
20824;SDS011;10573;50.936;6.978;2023-03-05T06:19:12;7.80;;;2.07;;
20824;SDS011;10573;50.936;6.978;2023-03-05T06:21:39;12.13;;;2.20;;
20824;SDS011;10573;50.936;6.978;2023-03-05T06:24:05;7.40;;;2.20;;
20824;SDS011;10573;50.936;6.978;2023-03-05T06:26:31;9.18;;;2.28;;
20824;SDS011;10573;50.936;6.978;2023-03-05T06:28:56;9.00;;;2.35;;
20824;SDS011;10573;50.936;6.978;2023-03-05T06:31:23;11.07;;;2.33;;
20824;SDS011;10573;50.936;6.978;2023-03-05T06:33:50;8.93;;;2.10;;
20824;SDS011;10573;50.936;6.978;2023-03-05T06:36:17;11.65;;;2.72;;
20824;SDS011;10573;50.936;6.978;2023-03-05T06:38:44;10.52;;;2.85;;
20824;SDS011;10573;50.936;6.978;2023-03-05T06:41:10;10.73;;;2.30;;
20824;SDS011;10573;50.936;6.978;2023-03-05T06:43:42;7.53;;;2.20;;
20824;SDS011;10573;50.936;6.978;2023-03-05T06:46:13;7.50;;;2.63;;
20824;SDS011;10573;50.936;6.978;2023-03-05T06:48:43;8.40;;;2.42;;
20824;SDS011;10573;50.936;6.978;2023-03-05T06:51:17;10.00;;;2.22;;
20824;SDS011;10573;50.936;6.978;2023-03-05T06:53:44;13.90;;;3.20;;
20824;SDS011;10573;50.936;6.978;2023-03-05T06:56:11;15.50;;;2.80;;
20824;SDS011;10573;50.936;6.978;2023-03-05T06:58:38;10.65;;;2.67;;
20824;SDS011;10573;50.936;6.978;2023-03-05T07:01:05;12.00;;;2.80;;
20824;SDS011;10573;50.936;6.978;2023-03-05T07:03:32;9.95;;;2.70;;
20824;SDS011;10573;50.936;6.978;2023-03-05T07:05:58;10.68;;;3.45;;
20824;SDS011;10573;50.936;6.978;2023-03-05T07:08:23;10.67;;;3.77;;
20824;SDS011;10573;50.936;6.978;2023-03-05T07:10:48;15.57;;;4.00;;
20824;SDS011;10573;50.936;6.978;2023-03-05T07:13:14;10.67;;;3.20;;
20824;SDS011;10573;50.936;6.978;2023-03-05T07:15:39;9.37;;;3.30;;
20824;SDS011;10573;50.936;6.978;2023-03-05T07:18:05;12.07;;;3.03;;
20824;SDS011;10573;50.936;6.978;2023-03-05T07:20:34;15.25;;;3.00;;
20824;SDS011;10573;50.936;6.978;2023-03-05T07:23:00;9.25;;;2.53;;
20824;SDS011;10573;50.936;6.978;2023-03-05T07:25:26;12.57;;;2.90;;
20824;SDS011;10573;50.936;6.978;2023-03-05T07:27:51;10.83;;;2.90;;
20824;SDS011;10573;50.936;6.978;2023-03-05T07:30:17;10.90;;;2.87;;
20824;SDS011;10573;50.936;6.978;2023-03-05T07:32:43;10.30;;;3.10;;
20824;SDS011;10573;50.936;6.978;2023-03-05T07:35:08;16.03;;;3.20;;
20824;SDS011;10573;50.936;6.978;2023-03-05T07:37:34;11.10;;;3.30;;
20824;SDS011;10573;50.936;6.978;2023-03-05T07:39:59;10.55;;;2.72;;
20824;SDS011;10573;50.936;6.978;2023-03-05T07:42:25;10.15;;;2.88;;
20824;SDS011;10573;50.936;6.978;2023-03-05T07:44:50;7.53;;;2.80;;
20824;SDS011;10573;50.936;6.978;2023-03-05T07:47:16;9.47;;;2.73;;
20824;SDS011;10573;50.936;6.978;2023-03-05T07:49:42;8.50;;;2.57;;
20824;SDS011;10573;50.936;6.978;2023-03-05T07:52:07;8.83;;;2.57;;
20824;SDS011;10573;50.936;6.978;2023-03-05T07:54:33;9.48;;;2.42;;
20824;SDS011;10573;50.936;6.978;2023-03-05T07:57:02;9.52;;;2.38;;
20824;SDS011;10573;50.936;6.978;2023-03-05T07:59:29;8.40;;;2.38;;
20824;SDS011;10573;50.936;6.978;2023-03-05T08:01:54;10.38;;;2.60;;
20824;SDS011;10573;50.936;6.978;2023-03-05T08:04:20;7.47;;;2.47;;
20824;SDS011;10573;50.936;6.978;2023-03-05T08:06:45;10.37;;;2.60;;
20824;SDS011;10573;50.936;6.978;2023-03-05T08:09:11;9.65;;;2.67;;
20824;SDS011;10573;50.936;6.978;2023-03-05T08:11:38;6.68;;;2.55;;
20824;SDS011;10573;50.936;6.978;2023-03-05T08:14:04;10.25;;;2.90;;
20824;SDS011;10573;50.936;6.978;2023-03-05T08:16:29;7.20;;;2.93;;
20824;SDS011;10573;50.936;6.978;2023-03-05T08:18:56;7.90;;;2.60;;
20824;SDS011;10573;50.936;6.978;2023-03-05T08:21:23;10.73;;;2.50;;
20824;SDS011;10573;50.936;6.978;2023-03-05T08:23:56;8.55;;;2.85;;
20824;SDS011;10573;50.936;6.978;2023-03-05T08:26:22;9.93;;;3.10;;
20824;SDS011;10573;50.936;6.978;2023-03-05T08:28:49;8.48;;;2.65;;
20824;SDS011;10573;50.936;6.978;2023-03-05T08:31:16;9.25;;;2.70;;
20824;SDS011;10573;50.936;6.978;2023-03-05T08:33:43;9.85;;;2.50;;
20824;SDS011;10573;50.936;6.978;2023-03-05T08:36:08;9.00;;;2.70;;
20824;SDS011;10573;50.936;6.978;2023-03-05T08:38:34;7.97;;;2.60;;
20824;SDS011;10573;50.936;6.978;2023-03-05T08:40:59;8.77;;;3.07;;
20824;SDS011;10573;50.936;6.978;2023-03-05T08:43:25;10.17;;;2.90;;
20824;SDS011;10573;50.936;6.978;2023-03-05T08:45:50;10.03;;;2.57;;
20824;SDS011;10573;50.936;6.978;2023-03-05T08:48:17;8.45;;;3.20;;
20824;SDS011;10573;50.936;6.978;2023-03-05T08:50:43;8.80;;;3.00;;
20824;SDS011;10573;50.936;6.978;2023-03-05T08:53:09;11.18;;;3.17;;
20824;SDS011;10573;50.936;6.978;2023-03-05T08:55:35;9.73;;;3.08;;
20824;SDS011;10573;50.936;6.978;2023-03-05T08:58:01;10.85;;;3.05;;
20824;SDS011;10573;50.936;6.978;2023-03-05T09:00:27;9.30;;;3.00;;
20824;SDS011;10573;50.936;6.978;2023-03-05T09:02:52;11.73;;;2.90;;
20824;SDS011;10573;50.936;6.978;2023-03-05T09:05:18;10.03;;;3.40;;
20824;SDS011;10573;50.936;6.978;2023-03-05T09:07:43;11.93;;;3.30;;
20824;SDS011;10573;50.936;6.978;2023-03-05T09:10:09;9.13;;;3.35;;
20824;SDS011;10573;50.936;6.978;2023-03-05T09:12:37;7.15;;;3.20;;
20824;SDS011;10573;50.936;6.978;2023-03-05T09:15:07;10.35;;;3.05;;
20824;SDS011;10573;50.936;6.978;2023-03-05T09:17:37;12.50;;;3.47;;
20824;SDS011;10573;50.936;6.978;2023-03-05T09:20:03;9.20;;;3.33;;
20824;SDS011;10573;50.936;6.978;2023-03-05T09:22:31;12.57;;;3.10;;
20824;SDS011;10573;50.936;6.978;2023-03-05T09:24:57;7.32;;;3.05;;
20824;SDS011;10573;50.936;6.978;2023-03-05T09:27:22;11.57;;;3.40;;
20824;SDS011;10573;50.936;6.978;2023-03-05T09:29:48;10.30;;;3.60;;
20824;SDS011;10573;50.936;6.978;2023-03-05T09:32:13;11.10;;;3.40;;
20824;SDS011;10573;50.936;6.978;2023-03-05T09:34:39;14.18;;;3.50;;
20824;SDS011;10573;50.936;6.978;2023-03-05T09:37:05;13.67;;;3.80;;
20824;SDS011;10573;50.936;6.978;2023-03-05T09:39:30;9.35;;;3.38;;
20824;SDS011;10573;50.936;6.978;2023-03-05T09:42:10;11.50;;;2.90;;
20824;SDS011;10573;50.936;6.978;2023-03-05T09:44:41;7.47;;;3.47;;
20824;SDS011;10573;50.936;6.978;2023-03-05T09:50:03;10.45;;;3.40;;
20824;SDS011;10573;50.936;6.978;2023-03-05T09:52:37;9.45;;;3.15;;
20824;SDS011;10573;50.936;6.978;2023-03-05T09:55:04;12.38;;;3.60;;
20824;SDS011;10573;50.936;6.978;2023-03-05T09:57:41;8.23;;;3.92;;
20824;SDS011;10573;50.936;6.978;2023-03-05T10:02:58;9.05;;;3.75;;
20824;SDS011;10573;50.936;6.978;2023-03-05T10:08:20;9.80;;;4.43;;
20824;SDS011;10573;50.936;6.978;2023-03-05T10:10:50;8.30;;;3.80;;
20824;SDS011;10573;50.936;6.978;2023-03-05T10:13:25;13.07;;;4.50;;
20824;SDS011;10573;50.936;6.978;2023-03-05T10:24:59;10.07;;;4.25;;
20824;SDS011;10573;50.936;6.978;2023-03-05T10:27:50;5.43;;;3.78;;
20824;SDS011;10573;50.936;6.978;2023-03-05T10:30:30;10.82;;;5.32;;
20824;SDS011;10573;50.936;6.978;2023-03-05T10:33:31;7.75;;;4.38;;
20824;SDS011;10573;50.936;6.978;2023-03-05T10:41:15;9.70;;;4.32;;
20824;SDS011;10573;50.936;6.978;2023-03-05T10:43:51;9.07;;;5.03;;
20824;SDS011;10573;50.936;6.978;2023-03-05T10:46:20;8.10;;;4.88;;
20824;SDS011;10573;50.936;6.978;2023-03-05T10:48:59;10.80;;;5.30;;
20824;SDS011;10573;50.936;6.978;2023-03-05T10:56:42;15.15;;;8.27;;
20824;SDS011;10573;50.936;6.978;2023-03-05T10:59:08;13.13;;;8.40;;
20824;SDS011;10573;50.936;6.978;2023-03-05T11:01:33;15.30;;;7.77;;
20824;SDS011;10573;50.936;6.978;2023-03-05T11:04:05;14.00;;;7.85;;
20824;SDS011;10573;50.936;6.978;2023-03-05T11:09:16;12.35;;;7.53;;
20824;SDS011;10573;50.936;6.978;2023-03-05T11:14:35;12.75;;;7.68;;
20824;SDS011;10573;50.936;6.978;2023-03-05T11:17:10;11.38;;;7.32;;
20824;SDS011;10573;50.936;6.978;2023-03-05T11:19:49;10.52;;;6.90;;
20824;SDS011;10573;50.936;6.978;2023-03-05T11:22:19;10.10;;;6.27;;
20824;SDS011;10573;50.936;6.978;2023-03-05T11:25:31;9.40;;;6.15;;
20824;SDS011;10573;50.936;6.978;2023-03-05T11:27:35;8.80;;;6.30;;
20824;SDS011;10573;50.936;6.978;2023-03-05T11:30:18;10.10;;;6.45;;
20824;SDS011;10573;50.936;6.978;2023-03-05T11:32:45;8.98;;;6.68;;
20824;SDS011;10573;50.936;6.978;2023-03-05T11:35:21;12.00;;;6.22;;
20824;SDS011;10573;50.936;6.978;2023-03-05T11:38:01;9.52;;;6.10;;
20824;SDS011;10573;50.936;6.978;2023-03-05T11:40:30;8.60;;;5.88;;
20824;SDS011;10573;50.936;6.978;2023-03-05T11:42:59;10.38;;;6.05;;
20824;SDS011;10573;50.936;6.978;2023-03-05T11:45:27;8.80;;;6.27;;
20824;SDS011;10573;50.936;6.978;2023-03-05T11:47:55;7.13;;;5.35;;
20824;SDS011;10573;50.936;6.978;2023-03-05T11:50:26;7.10;;;5.13;;
20824;SDS011;10573;50.936;6.978;2023-03-05T11:52:56;8.90;;;5.73;;
20824;SDS011;10573;50.936;6.978;2023-03-05T11:55:27;10.60;;;7.10;;
20824;SDS011;10573;50.936;6.978;2023-03-05T12:00:43;11.05;;;6.95;;
20824;SDS011;10573;50.936;6.978;2023-03-05T12:03:10;9.43;;;6.93;;
20824;SDS011;10573;50.936;6.978;2023-03-05T12:05:40;10.48;;;7.55;;
20824;SDS011;10573;50.936;6.978;2023-03-05T12:08:13;9.95;;;6.72;;
20824;SDS011;10573;50.936;6.978;2023-03-05T12:10:41;9.80;;;7.15;;
20824;SDS011;10573;50.936;6.978;2023-03-05T12:13:25;9.13;;;7.10;;
20824;SDS011;10573;50.936;6.978;2023-03-05T12:22:14;12.68;;;5.70;;
20824;SDS011;10573;50.936;6.978;2023-03-05T12:24:41;12.07;;;5.97;;
20824;SDS011;10573;50.936;6.978;2023-03-05T12:27:08;9.73;;;6.13;;
20824;SDS011;10573;50.936;6.978;2023-03-05T12:29:48;8.10;;;5.90;;
20824;SDS011;10573;50.936;6.978;2023-03-05T12:39:48;7.40;;;5.60;;
20824;SDS011;10573;50.936;6.978;2023-03-05T12:47:46;8.35;;;4.50;;
20824;SDS011;10573;50.936;6.978;2023-03-05T12:53:11;7.23;;;4.17;;
20824;SDS011;10573;50.936;6.978;2023-03-05T12:58:42;6.20;;;4.28;;
20824;SDS011;10573;50.936;6.978;2023-03-05T13:01:17;6.65;;;4.32;;
20824;SDS011;10573;50.936;6.978;2023-03-05T13:03:59;4.25;;;3.40;;
20824;SDS011;10573;50.936;6.978;2023-03-05T13:06:33;7.93;;;4.20;;
20824;SDS011;10573;50.936;6.978;2023-03-05T13:09:04;7.97;;;4.20;;
20824;SDS011;10573;50.936;6.978;2023-03-05T13:11:38;6.45;;;4.40;;
20824;SDS011;10573;50.936;6.978;2023-03-05T13:14:20;8.65;;;4.60;;
20824;SDS011;10573;50.936;6.978;2023-03-05T13:16:54;5.32;;;4.30;;
20824;SDS011;10573;50.936;6.978;2023-03-05T13:19:19;7.03;;;4.10;;
20824;SDS011;10573;50.936;6.978;2023-03-05T13:21:55;5.78;;;4.07;;
20824;SDS011;10573;50.936;6.978;2023-03-05T13:24:25;6.85;;;3.83;;
20824;SDS011;10573;50.936;6.978;2023-03-05T13:26:51;6.93;;;3.43;;
20824;SDS011;10573;50.936;6.978;2023-03-05T13:29:21;6.93;;;3.80;;
20824;SDS011;10573;50.936;6.978;2023-03-05T13:31:48;5.97;;;3.80;;
20824;SDS011;10573;50.936;6.978;2023-03-05T13:37:04;6.13;;;4.00;;
20824;SDS011;10573;50.936;6.978;2023-03-05T13:39:54;7.28;;;4.18;;
20824;SDS011;10573;50.936;6.978;2023-03-05T13:42:28;10.38;;;4.85;;
20824;SDS011;10573;50.936;6.978;2023-03-05T13:47:26;11.65;;;6.10;;
20824;SDS011;10573;50.936;6.978;2023-03-05T13:50:00;9.97;;;6.47;;
20824;SDS011;10573;50.936;6.978;2023-03-05T13:52:30;8.68;;;6.72;;
20824;SDS011;10573;50.936;6.978;2023-03-05T13:54:58;12.70;;;7.32;;
20824;SDS011;10573;50.936;6.978;2023-03-05T13:57:57;10.48;;;6.80;;
20824;SDS011;10573;50.936;6.978;2023-03-05T14:00:30;14.55;;;6.95;;
20824;SDS011;10573;50.936;6.978;2023-03-05T14:02:59;11.43;;;6.18;;
20824;SDS011;10573;50.936;6.978;2023-03-05T14:05:33;10.70;;;6.53;;
20824;SDS011;10573;50.936;6.978;2023-03-05T14:07:59;9.02;;;5.90;;
20824;SDS011;10573;50.936;6.978;2023-03-05T14:10:26;9.57;;;5.82;;
20824;SDS011;10573;50.936;6.978;2023-03-05T14:12:54;9.38;;;5.97;;
20824;SDS011;10573;50.936;6.978;2023-03-05T14:17:47;10.30;;;5.60;;
20824;SDS011;10573;50.936;6.978;2023-03-05T14:20:25;10.45;;;6.30;;
20824;SDS011;10573;50.936;6.978;2023-03-05T14:22:56;9.82;;;6.18;;
20824;SDS011;10573;50.936;6.978;2023-03-05T14:27:51;9.05;;;5.70;;
20824;SDS011;10573;50.936;6.978;2023-03-05T14:30:18;8.45;;;5.43;;
20824;SDS011;10573;50.936;6.978;2023-03-05T14:32:45;8.70;;;5.70;;
20824;SDS011;10573;50.936;6.978;2023-03-05T14:35:15;6.43;;;5.72;;
20824;SDS011;10573;50.936;6.978;2023-03-05T14:37:44;12.20;;;6.68;;
20824;SDS011;10573;50.936;6.978;2023-03-05T14:45:43;6.50;;;4.95;;
20824;SDS011;10573;50.936;6.978;2023-03-05T14:48:09;7.90;;;4.93;;
20824;SDS011;10573;50.936;6.978;2023-03-05T14:50:44;8.40;;;4.80;;
20824;SDS011;10573;50.936;6.978;2023-03-05T14:53:15;6.20;;;4.38;;
20824;SDS011;10573;50.936;6.978;2023-03-05T14:55:49;7.87;;;4.20;;
20824;SDS011;10573;50.936;6.978;2023-03-05T14:58:20;7.60;;;4.75;;
20824;SDS011;10573;50.936;6.978;2023-03-05T15:00:50;8.60;;;5.25;;
20824;SDS011;10573;50.936;6.978;2023-03-05T15:03:16;9.90;;;5.37;;
20824;SDS011;10573;50.936;6.978;2023-03-05T15:05:42;14.43;;;7.78;;
20824;SDS011;10573;50.936;6.978;2023-03-05T15:08:12;13.05;;;7.70;;
20824;SDS011;10573;50.936;6.978;2023-03-05T15:10:40;11.63;;;6.38;;
20824;SDS011;10573;50.936;6.978;2023-03-05T15:13:05;8.77;;;5.77;;
20824;SDS011;10573;50.936;6.978;2023-03-05T15:15:31;12.67;;;6.37;;
20824;SDS011;10573;50.936;6.978;2023-03-05T15:17:57;10.52;;;6.47;;
20824;SDS011;10573;50.936;6.978;2023-03-05T15:20:23;11.90;;;7.10;;
20824;SDS011;10573;50.936;6.978;2023-03-05T15:22:50;18.50;;;8.65;;
20824;SDS011;10573;50.936;6.978;2023-03-05T15:25:17;17.08;;;7.18;;
20824;SDS011;10573;50.936;6.978;2023-03-05T15:27:44;7.45;;;5.55;;
20824;SDS011;10573;50.936;6.978;2023-03-05T15:30:23;8.25;;;5.25;;
20824;SDS011;10573;50.936;6.978;2023-03-05T15:33:03;8.25;;;5.40;;
20824;SDS011;10573;50.936;6.978;2023-03-05T15:35:30;8.32;;;5.35;;
20824;SDS011;10573;50.936;6.978;2023-03-05T15:37:56;7.03;;;4.93;;
20824;SDS011;10573;50.936;6.978;2023-03-05T15:40:23;8.75;;;5.65;;
20824;SDS011;10573;50.936;6.978;2023-03-05T15:42:48;8.07;;;6.05;;
20824;SDS011;10573;50.936;6.978;2023-03-05T15:45:14;9.60;;;6.00;;
20824;SDS011;10573;50.936;6.978;2023-03-05T15:47:40;9.55;;;6.35;;
20824;SDS011;10573;50.936;6.978;2023-03-05T15:50:06;9.10;;;6.43;;
20824;SDS011;10573;50.936;6.978;2023-03-05T15:52:31;10.02;;;6.65;;
20824;SDS011;10573;50.936;6.978;2023-03-05T15:54:58;10.53;;;6.33;;
20824;SDS011;10573;50.936;6.978;2023-03-05T15:57:24;10.52;;;6.13;;
20824;SDS011;10573;50.936;6.978;2023-03-05T15:59:49;12.07;;;7.30;;
20824;SDS011;10573;50.936;6.978;2023-03-05T16:02:15;13.30;;;7.60;;
20824;SDS011;10573;50.936;6.978;2023-03-05T16:04:40;9.52;;;6.53;;